Time;durP1;ratioP1;P1;durP2;ratioP2;P2;SDS_P1;SDS_P2;PMS_P1;PMS_P2;Temp;Humidity;BMP_temperature;BMP_pressure;BME280_temperature;BME280_humidity;BME280_pressure;Samples;Min_cycle;Max_cycle;Signal;HPM_P1;HPM_P2
2022/10/23 00:01:33;;;;;;;13.00;11.68;;;10.20;99.90;;;;;;5081162;28;20115;-32
2022/10/23 00:04:13;;;;;;;14.30;12.20;;;10.20;99.90;;;;;;5074467;28;20166;-31
2022/10/23 00:06:40;;;;;;;14.10;11.00;;;10.20;99.90;;;;;;5069536;28;20046;-30
2022/10/23 00:09:08;;;;;;;13.30;11.07;;;10.20;99.90;;;;;;5069423;28;20040;-30
2022/10/23 00:11:34;;;;;;;12.35;11.10;;;10.20;99.90;;;;;;5072060;28;20046;-32
2022/10/23 00:14:03;;;;;;;12.70;10.82;;;10.20;99.90;;;;;;5077779;28;20072;-31
2022/10/23 00:16:33;;;;;;;12.02;10.50;;;10.20;99.90;;;;;;5072074;28;20505;-31
2022/10/23 00:18:59;;;;;;;12.82;11.32;;;10.20;99.90;;;;;;5076708;28;20029;-33
2022/10/23 00:21:24;;;;;;;11.48;10.00;;;10.20;99.90;;;;;;5079191;28;20115;-28
2022/10/23 00:23:51;;;;;;;12.60;11.30;;;10.10;99.90;;;;;;5101716;28;20032;-28
2022/10/23 00:26:17;;;;;;;15.45;12.35;;;10.10;99.90;;;;;;5078989;28;20043;-28
2022/10/23 00:28:45;;;;;;;12.32;11.10;;;10.20;99.90;;;;;;5079350;28;20040;-28
2022/10/23 00:31:11;;;;;;;17.35;11.00;;;10.20;99.90;;;;;;5073390;28;20043;-28
2022/10/23 00:33:37;;;;;;;15.90;12.00;;;10.10;99.90;;;;;;5076719;28;20035;-27
2022/10/23 00:36:05;;;;;;;14.05;11.18;;;10.10;99.90;;;;;;5074886;28;20048;-31
2022/10/23 00:38:31;;;;;;;15.18;12.43;;;10.10;99.90;;;;;;5081460;28;20047;-28
2022/10/23 00:40:56;;;;;;;16.30;14.43;;;10.10;99.90;;;;;;5078623;28;20032;-28
2022/10/23 00:43:26;;;;;;;18.52;13.52;;;10.20;99.90;;;;;;5086374;28;20032;-27
2022/10/23 00:45:51;;;;;;;13.43;12.02;;;10.20;99.90;;;;;;5072264;28;20037;-28
2022/10/23 00:48:17;;;;;;;16.27;14.20;;;10.20;99.90;;;;;;5080529;28;20040;-28
2022/10/23 00:50:45;;;;;;;18.77;14.77;;;10.20;99.90;;;;;;5077801;28;20382;-28
2022/10/23 00:53:12;;;;;;;14.43;12.70;;;10.20;99.90;;;;;;5085779;28;20165;-28
2022/10/23 00:55:45;;;;;;;19.15;14.45;;;10.20;99.90;;;;;;5083672;28;20028;-28
2022/10/23 00:58:12;;;;;;;18.10;13.98;;;10.10;99.90;;;;;;5071830;28;20045;-29
2022/10/23 01:00:45;;;;;;;17.23;13.30;;;10.10;99.90;;;;;;5079678;28;20024;-27
2022/10/23 01:03:12;;;;;;;17.70;15.07;;;10.10;99.90;;;;;;5071588;28;20042;-28
2022/10/23 01:05:51;;;;;;;27.17;17.65;;;10.10;99.90;;;;;;5098979;28;20040;-29
2022/10/23 01:08:33;;;;;;;15.70;13.45;;;10.10;99.90;;;;;;5073453;28;20125;-28
2022/10/23 01:11:14;;;;;;;18.38;13.85;;;10.00;99.90;;;;;;5083249;28;20043;-27
2022/10/23 01:13:46;;;;;;;17.15;13.68;;;10.00;99.90;;;;;;5065154;28;20029;-28
2022/10/23 01:16:18;;;;;;;15.88;13.10;;;10.00;99.90;;;;;;5075445;28;20085;-28
2022/10/23 01:19:03;;;;;;;14.80;12.15;;;9.90;99.90;;;;;;5068737;28;20039;-28
2022/10/23 01:21:47;;;;;;;15.73;12.98;;;9.90;99.90;;;;;;5074140;28;20048;-29
2022/10/23 01:24:31;;;;;;;;;;;9.90;99.90;;;;;;5069869;28;20036;-27
2022/10/23 01:27:15;;;;;;;16.52;12.80;;;9.80;99.90;;;;;;5098681;28;19924;-27
2022/10/23 01:29:48;;;;;;;16.50;12.60;;;9.80;99.90;;;;;;5073211;28;20425;-26
2022/10/23 01:32:35;;;;;;;19.03;14.63;;;9.80;99.90;;;;;;5082481;28;20044;-28
2022/10/23 01:35:19;;;;;;;18.63;14.23;;;9.80;99.90;;;;;;5067136;28;20032;-28
2022/10/23 01:38:02;;;;;;;22.70;16.50;;;9.70;99.90;;;;;;5075784;28;20058;-29
2022/10/23 01:41:14;;;;;;;16.10;13.60;;;9.70;99.90;;;;;;5081080;28;20033;-28
2022/10/23 01:43:50;;;;;;;19.40;12.77;;;9.80;99.90;;;;;;5069224;28;20037;-27
2022/10/23 01:46:17;;;;;;;15.75;13.38;;;9.70;99.90;;;;;;5085919;28;20056;-27
2022/10/23 01:48:50;;;;;;;19.90;14.82;;;9.70;99.90;;;;;;5078140;28;20028;-27
2022/10/23 01:51:18;;;;;;;19.77;14.07;;;9.70;99.90;;;;;;5083863;28;20050;-27
2022/10/23 01:53:46;;;;;;;14.82;13.27;;;9.70;99.90;;;;;;5080966;28;20109;-29
2022/10/23 01:56:21;;;;;;;15.35;13.57;;;9.70;99.90;;;;;;5072965;28;20048;-28
2022/10/23 01:58:50;;;;;;;17.98;14.32;;;9.70;99.90;;;;;;5085954;28;20067;-27
2022/10/23 02:01:18;;;;;;;16.25;12.27;;;9.70;99.90;;;;;;5073979;28;20052;-28
2022/10/23 02:03:45;;;;;;;14.13;12.75;;;9.60;99.90;;;;;;5080459;28;20038;-27
2022/10/23 02:06:11;;;;;;;15.65;14.00;;;9.60;99.90;;;;;;5066400;28;20032;-28
2022/10/23 02:08:37;;;;;;;17.08;14.20;;;9.60;99.90;;;;;;5077847;28;20036;-30
2022/10/23 02:11:12;;;;;;;15.63;12.55;;;9.60;99.90;;;;;;5078765;28;20051;-28
2022/10/23 02:13:51;;;;;;;17.20;12.52;;;9.60;99.90;;;;;;5061972;28;20478;-27
2022/10/23 02:16:20;;;;;;;16.77;13.65;;;9.60;99.90;;;;;;5076309;28;20060;-28
2022/10/23 02:19:07;;;;;;;21.35;15.80;;;9.60;99.90;;;;;;5071397;28;20384;-28
2022/10/23 02:21:37;;;;;;;19.25;14.98;;;9.60;99.90;;;;;;5074808;28;20035;-31
2022/10/23 02:24:10;;;;;;;15.98;13.48;;;9.60;99.90;;;;;;5077264;28;20093;-27
2022/10/23 02:26:46;;;;;;;16.73;12.88;;;9.60;99.90;;;;;;5066570;28;20063;-30
2022/10/23 02:29:35;;;;;;;14.70;12.35;;;9.60;99.90;;;;;;5078316;28;20044;-27
2022/10/23 02:32:01;;;;;;;15.10;13.52;;;9.50;99.90;;;;;;5080941;28;20050;-27
2022/10/23 02:34:27;;;;;;;17.08;13.27;;;9.50;99.90;;;;;;5074377;28;20040;-27
2022/10/23 02:36:53;;;;;;;16.63;13.77;;;9.50;99.90;;;;;;5071814;28;20046;-28
2022/10/23 02:39:21;;;;;;;18.05;13.25;;;9.50;99.90;;;;;;5076497;28;20036;-27
2022/10/23 02:42:27;;;;;;;15.73;12.40;;;9.50;99.90;;;;;;5082735;28;20043;-27
2022/10/23 02:44:58;;;;;;;20.98;15.50;;;9.40;99.90;;;;;;5060842;28;20126;-29
2022/10/23 02:48:19;;;;;;;17.23;14.05;;;9.50;99.90;;;;;;5090147;28;20461;-26
2022/10/23 02:51:10;;;;;;;18.73;14.48;;;9.50;99.90;;;;;;5074926;28;20066;-28
2022/10/23 02:54:00;;;;;;;16.17;13.60;;;9.50;99.90;;;;;;5069765;28;20032;-29
2022/10/23 02:56:53;;;;;;;19.67;14.75;;;9.50;99.90;;;;;;5076451;28;20045;-27
2022/10/23 02:59:30;;;;;;;17.17;13.95;;;9.50;99.90;;;;;;5082845;28;20440;-27
2022/10/23 03:02:24;;;;;;;19.15;14.77;;;9.50;99.90;;;;;;5079844;28;20032;-27
2022/10/23 03:04:53;;;;;;;15.57;13.85;;;9.50;99.90;;;;;;5080188;28;20048;-28
2022/10/23 03:07:19;;;;;;;18.92;15.60;;;9.40;99.90;;;;;;5083093;28;20040;-27
2022/10/23 03:09:45;;;;;;;16.90;13.80;;;9.40;99.90;;;;;;5071357;28;20133;-28
2022/10/23 03:12:10;;;;;;;15.38;13.75;;;9.40;99.90;;;;;;5073384;28;20044;-29
2022/10/23 03:14:36;;;;;;;16.65;13.63;;;9.40;99.90;;;;;;5085660;28;20036;-28
2022/10/23 03:17:03;;;;;;;17.00;13.20;;;9.40;99.90;;;;;;5073964;28;20041;-28
2022/10/23 03:19:29;;;;;;;18.77;12.68;;;9.40;99.90;;;;;;5073486;28;20043;-27
2022/10/23 03:21:54;;;;;;;16.20;13.40;;;9.40;99.90;;;;;;5063723;28;20028;-28
2022/10/23 03:24:20;;;;;;;28.23;20.63;;;9.40;99.90;;;;;;5070312;28;20060;-28
2022/10/23 03:26:46;;;;;;;15.70;14.13;;;9.40;99.90;;;;;;5082986;28;20040;-28
2022/10/23 03:29:11;;;;;;;19.52;15.32;;;9.40;99.90;;;;;;5063872;28;20071;-29
2022/10/23 03:31:37;;;;;;;16.85;14.10;;;9.40;99.90;;;;;;5087665;28;20039;-28
2022/10/23 03:34:08;;;;;;;19.92;13.73;;;9.40;99.90;;;;;;5068951;28;20411;-27
2022/10/23 03:36:34;;;;;;;21.83;17.33;;;9.30;99.90;;;;;;5078142;28;20067;-27
2022/10/23 03:39:00;;;;;;;17.45;13.25;;;9.30;99.90;;;;;;5086855;28;20480;-28
2022/10/23 03:41:26;;;;;;;22.95;16.70;;;9.40;99.90;;;;;;5082661;28;20064;-27
2022/10/23 03:43:52;;;;;;;20.27;17.15;;;9.40;99.90;;;;;;5085535;28;20110;-28
2022/10/23 03:46:17;;;;;;;19.30;14.77;;;9.40;99.90;;;;;;5082191;28;20036;-28
2022/10/23 03:48:43;;;;;;;18.58;15.60;;;9.30;99.90;;;;;;5076920;28;20324;-27
2022/10/23 03:51:09;;;;;;;17.88;15.05;;;9.40;99.90;;;;;;5054184;28;20417;-28
2022/10/23 03:53:35;;;;;;;19.30;15.32;;;9.30;99.90;;;;;;5072788;28;20044;-27
2022/10/23 03:56:00;;;;;;;19.23;15.20;;;9.30;99.90;;;;;;5081290;28;20086;-28
2022/10/23 03:58:26;;;;;;;20.48;16.23;;;9.30;99.90;;;;;;5077414;28;20246;-28
2022/10/23 04:00:52;;;;;;;17.98;14.55;;;9.30;99.90;;;;;;5069449;28;20044;-28
2022/10/23 04:03:18;;;;;;;17.77;15.65;;;9.30;99.90;;;;;;5085021;28;20513;-30
2022/10/23 04:05:43;;;;;;;27.17;18.35;;;9.30;99.90;;;;;;5076588;28;20541;-27
2022/10/23 04:08:09;;;;;;;22.13;15.57;;;9.40;99.90;;;;;;5075771;28;20494;-28
2022/10/23 04:10:35;;;;;;;21.92;16.95;;;9.40;99.90;;;;;;5072616;28;20031;-28
2022/10/23 04:13:00;;;;;;;17.40;14.82;;;9.40;99.90;;;;;;5053937;28;20424;-30
2022/10/23 04:15:26;;;;;;;21.33;15.82;;;9.40;99.90;;;;;;5077857;28;20036;-27
2022/10/23 04:17:52;;;;;;;26.15;18.27;;;9.30;99.90;;;;;;5068202;28;20410;-27
2022/10/23 04:20:18;;;;;;;19.55;15.48;;;9.40;99.90;;;;;;5080699;28;20158;-29
2022/10/23 04:22:44;;;;;;;23.38;16.25;;;9.40;99.90;;;;;;5073396;28;20033;-28
2022/10/23 04:25:09;;;;;;;20.88;16.95;;;9.40;99.90;;;;;;5078792;28;20032;-27
2022/10/23 04:27:35;;;;;;;18.73;16.17;;;9.40;99.90;;;;;;5064752;28;20036;-27
2022/10/23 04:30:02;;;;;;;27.83;21.48;;;9.40;99.90;;;;;;5070412;28;20033;-27
2022/10/23 04:32:28;;;;;;;29.35;22.92;;;9.50;99.90;;;;;;5071733;28;20107;-27
2022/10/23 04:34:54;;;;;;;31.52;22.38;;;9.60;99.90;;;;;;5077248;28;20162;-27
2022/10/23 04:37:19;;;;;;;36.22;25.10;;;9.70;99.90;;;;;;5052031;28;20045;-28
2022/10/23 04:39:45;;;;;;;26.88;20.23;;;9.70;99.90;;;;;;5083365;28;20029;-28
2022/10/23 04:42:11;;;;;;;37.35;22.73;;;9.70;99.90;;;;;;5068727;28;20039;-27
2022/10/23 04:44:37;;;;;;;29.52;20.08;;;9.60;99.90;;;;;;5070390;28;20054;-26
2022/10/23 04:47:02;;;;;;;25.38;18.83;;;9.70;99.90;;;;;;5072554;28;20036;-28
2022/10/23 04:49:28;;;;;;;27.58;19.52;;;9.70;99.90;;;;;;5080685;28;20041;-28
2022/10/23 04:51:54;;;;;;;24.75;18.30;;;9.60;99.90;;;;;;5085137;28;20046;-27
2022/10/23 04:54:19;;;;;;;23.52;18.30;;;9.60;99.90;;;;;;5069982;28;20482;-29
2022/10/23 04:56:45;;;;;;;19.65;16.98;;;9.50;99.90;;;;;;5069059;28;20040;-27
2022/10/23 04:59:11;;;;;;;27.98;19.45;;;9.60;99.90;;;;;;5075618;28;20394;-27
2022/10/23 05:01:37;;;;;;;25.60;18.85;;;9.50;99.90;;;;;;5073578;28;20434;-28
2022/10/23 05:04:03;;;;;;;25.90;19.42;;;9.50;99.90;;;;;;5072972;28;20078;-28
2022/10/23 05:06:29;;;;;;;24.33;17.92;;;9.50;99.90;;;;;;5064522;28;20252;-28
2022/10/23 05:08:55;;;;;;;23.55;16.83;;;9.50;99.90;;;;;;5073737;28;20415;-27
2022/10/23 05:11:21;;;;;;;21.50;16.63;;;9.50;99.90;;;;;;5071369;28;20043;-26
2022/10/23 05:13:47;;;;;;;24.35;16.80;;;9.40;99.90;;;;;;5072674;28;20962;-28
2022/10/23 05:16:38;;;;;;;22.67;16.98;;;9.40;99.90;;;;;;5066901;28;20047;-28
2022/10/23 05:19:08;;;;;;;22.83;16.15;;;9.40;99.90;;;;;;5065911;28;20037;-27
2022/10/23 05:21:35;;;;;;;20.85;16.80;;;9.40;99.90;;;;;;5070895;28;20428;-28
2022/10/23 05:24:01;;;;;;;24.30;19.05;;;9.40;99.90;;;;;;5066183;28;20185;-27
2022/10/23 05:26:29;;;;;;;26.02;18.85;;;9.30;99.90;;;;;;5078277;28;20143;-27
2022/10/23 05:28:55;;;;;;;21.27;16.50;;;9.30;99.90;;;;;;5073559;28;20040;-27
2022/10/23 05:31:23;;;;;;;21.48;16.35;;;9.30;99.90;;;;;;5074098;28;20125;-28
2022/10/23 05:33:49;;;;;;;20.00;16.20;;;9.30;99.90;;;;;;5075638;28;20173;-29
2022/10/23 05:36:16;;;;;;;24.48;17.17;;;9.30;99.90;;;;;;5072283;28;20131;-27
2022/10/23 05:38:42;;;;;;;18.98;16.52;;;9.30;99.90;;;;;;5087244;28;20497;-27
2022/10/23 05:41:07;;;;;;;23.20;17.75;;;9.30;99.90;;;;;;5076250;28;20075;-27
2022/10/23 05:43:33;;;;;;;32.42;20.67;;;9.30;99.90;;;;;;5070755;28;20115;-28
2022/10/23 05:46:02;;;;;;;25.80;16.77;;;9.30;99.90;;;;;;5072117;28;20635;-27
2022/10/23 05:48:28;;;;;;;21.70;17.55;;;9.30;99.90;;;;;;5071016;28;20051;-27
2022/10/23 05:50:54;;;;;;;21.55;18.17;;;9.30;99.90;;;;;;5071181;28;20033;-28
2022/10/23 05:53:19;;;;;;;23.40;18.13;;;9.40;99.90;;;;;;5068138;28;20402;-28
2022/10/23 05:55:45;;;;;;;23.65;17.48;;;9.40;99.90;;;;;;5065296;28;20036;-27
2022/10/23 05:58:11;;;;;;;21.13;15.50;;;9.40;99.90;;;;;;5050634;28;20559;-27
2022/10/23 06:00:37;;;;;;;23.17;17.38;;;9.40;99.90;;;;;;5057491;28;20032;-28
2022/10/23 06:03:02;;;;;;;23.15;16.35;;;9.40;99.90;;;;;;5070021;28;20035;-28
2022/10/23 06:05:28;;;;;;;23.08;15.18;;;9.40;99.90;;;;;;5070974;28;20037;-27
2022/10/23 06:07:58;;;;;;;34.10;20.48;;;9.40;99.90;;;;;;5070329;28;20040;-27
2022/10/23 06:10:24;;;;;;;26.63;20.20;;;9.40;99.90;;;;;;5085865;28;20041;-28
2022/10/23 06:12:50;;;;;;;23.98;17.65;;;9.50;99.90;;;;;;5070143;28;20390;-27
2022/10/23 06:15:16;;;;;;;24.60;16.85;;;9.50;99.90;;;;;;5074908;28;20036;-28
2022/10/23 06:17:42;;;;;;;23.60;16.83;;;9.50;99.90;;;;;;5067840;28;20070;-27
2022/10/23 06:20:08;;;;;;;24.40;17.30;;;9.50;99.90;;;;;;5051374;28;20067;-28
2022/10/23 06:22:34;;;;;;;22.73;16.88;;;9.50;99.90;;;;;;5074714;28;20093;-28
2022/10/23 06:25:00;;;;;;;27.33;18.23;;;9.50;99.90;;;;;;5076241;28;20025;-26
2022/10/23 06:27:25;;;;;;;21.08;16.15;;;9.60;99.90;;;;;;5070031;28;20400;-28
2022/10/23 06:29:51;;;;;;;22.42;16.70;;;9.60;99.90;;;;;;5070740;28;20047;-29
2022/10/23 06:32:17;;;;;;;21.33;16.02;;;9.60;99.90;;;;;;5071783;28;20040;-28
2022/10/23 06:34:43;;;;;;;31.52;20.88;;;9.60;99.90;;;;;;5060980;28;20093;-27
2022/10/23 06:37:09;;;;;;;23.23;17.38;;;9.60;99.90;;;;;;5079322;28;20132;-27
2022/10/23 06:39:35;;;;;;;25.52;18.88;;;9.70;99.90;;;;;;5056604;28;20093;-30
2022/10/23 06:42:01;;;;;;;26.85;18.98;;;9.70;99.90;;;;;;5069268;28;20059;-27
2022/10/23 06:44:27;;;;;;;25.50;17.95;;;9.70;99.90;;;;;;5082976;28;20494;-27
2022/10/23 06:46:53;;;;;;;25.02;16.90;;;9.80;99.90;;;;;;5066687;28;20051;-27
2022/10/23 06:49:19;;;;;;;23.95;17.05;;;9.80;99.90;;;;;;5064227;28;20039;-28
2022/10/23 06:51:44;;;;;;;24.42;17.42;;;9.80;99.90;;;;;;5071551;28;20044;-27
2022/10/23 06:54:11;;;;;;;21.48;16.52;;;9.90;99.90;;;;;;5066235;28;20494;-28
2022/10/23 06:56:37;;;;;;;20.33;15.50;;;9.90;99.90;;;;;;5066139;28;20048;-27
2022/10/23 06:59:03;;;;;;;20.13;15.43;;;9.90;99.90;;;;;;5066494;28;20351;-28
2022/10/23 07:01:28;;;;;;;22.50;15.70;;;10.00;99.90;;;;;;5068918;28;20111;-29
2022/10/23 07:03:54;;;;;;;19.85;14.38;;;10.00;99.90;;;;;;5067126;28;20036;-27
2022/10/23 07:06:20;;;;;;;23.63;15.50;;;10.00;99.90;;;;;;5072101;28;20505;-28
2022/10/23 07:08:46;;;;;;;21.15;15.40;;;10.00;99.90;;;;;;5074492;28;20032;-27
2022/10/23 07:11:11;;;;;;;22.98;15.98;;;10.10;99.90;;;;;;5077811;28;20094;-27
2022/10/23 07:13:39;;;;;;;21.55;13.88;;;10.10;99.90;;;;;;5080973;28;20124;-27
2022/10/23 07:16:17;;;;;;;20.23;14.65;;;10.20;99.90;;;;;;5067563;28;20069;-27
2022/10/23 07:18:44;;;;;;;17.45;14.00;;;10.20;99.90;;;;;;5065629;28;20490;-28
2022/10/23 07:21:09;;;;;;;20.17;16.30;;;10.20;99.90;;;;;;5081742;28;20051;-28
2022/10/23 07:23:35;;;;;;;23.90;16.27;;;10.30;99.90;;;;;;5061893;28;20067;-27
2022/10/23 07:26:14;;;;;;;21.13;15.30;;;10.30;99.90;;;;;;5074624;28;20078;-28
2022/10/23 07:28:42;;;;;;;24.77;16.88;;;10.30;99.90;;;;;;5073818;28;20056;-28
2022/10/23 07:31:08;;;;;;;21.65;15.57;;;10.40;99.90;;;;;;5080984;28;20044;-28
2022/10/23 07:33:34;;;;;;;21.15;15.88;;;10.50;99.90;;;;;;5074825;28;20032;-28
2022/10/23 07:36:02;;;;;;;24.38;17.23;;;10.50;99.90;;;;;;5065091;28;20517;-27
2022/10/23 07:38:28;;;;;;;21.02;14.80;;;10.60;99.90;;;;;;5070402;28;20078;-30
2022/10/23 07:40:56;;;;;;;21.88;15.27;;;10.60;99.90;;;;;;5071504;28;20437;-28
2022/10/23 07:43:24;;;;;;;21.75;15.73;;;10.70;99.90;;;;;;5073629;28;20170;-27
2022/10/23 07:45:51;;;;;;;23.42;16.00;;;10.80;99.90;;;;;;5076670;28;20036;-28
2022/10/23 07:48:17;;;;;;;22.65;14.75;;;10.80;99.90;;;;;;5073008;28;20120;-28
2022/10/23 07:50:42;;;;;;;21.88;16.30;;;10.90;99.90;;;;;;5083708;28;20071;-28
2022/10/23 07:53:19;;;;;;;19.55;14.50;;;10.90;99.90;;;;;;5086071;28;20469;-28
2022/10/23 07:55:57;;;;;;;22.25;14.40;;;11.00;99.90;;;;;;5090254;28;20043;-28
2022/10/23 07:58:23;;;;;;;22.05;14.23;;;11.10;99.90;;;;;;5075613;28;20040;-28
2022/10/23 08:00:54;;;;;;;24.85;17.30;;;11.10;99.90;;;;;;5077999;28;20131;-29
2022/10/23 08:03:20;;;;;;;19.80;13.82;;;11.20;99.90;;;;;;5082160;28;20112;-28
2022/10/23 08:05:46;;;;;;;19.77;15.07;;;11.30;99.90;;;;;;5073825;28;20107;-28
2022/10/23 08:08:11;;;;;;;25.52;14.30;;;11.30;99.90;;;;;;5082517;28;20395;-27
2022/10/23 08:10:40;;;;;;;18.30;14.30;;;11.40;99.90;;;;;;5081128;28;20063;-28
2022/10/23 08:13:07;;;;;;;19.83;13.32;;;11.40;99.90;;;;;;5077605;28;20071;-29
2022/10/23 08:15:33;;;;;;;18.52;13.27;;;11.50;99.90;;;;;;5080124;28;20071;-28
2022/10/23 08:17:59;;;;;;;23.38;14.52;;;11.50;99.90;;;;;;5081433;28;20067;-28
2022/10/23 08:20:24;;;;;;;17.40;13.70;;;11.60;99.90;;;;;;5059552;28;20087;-28
2022/10/23 08:22:52;;;;;;;17.63;13.68;;;11.60;99.90;;;;;;5071632;28;20094;-28
2022/10/23 08:25:17;;;;;;;19.55;13.32;;;11.70;99.90;;;;;;5063728;28;20429;-29
2022/10/23 08:27:43;;;;;;;19.52;14.05;;;11.70;99.90;;;;;;5087229;28;20036;-27
2022/10/23 08:30:09;;;;;;;19.67;15.13;;;11.80;99.90;;;;;;5074198;28;20040;-28
2022/10/23 08:32:35;;;;;;;16.10;12.77;;;11.90;99.90;;;;;;5077854;28;20047;-28
2022/10/23 08:35:01;;;;;;;22.65;14.57;;;12.00;99.90;;;;;;5067210;28;20041;-28
2022/10/23 08:37:27;;;;;;;19.75;12.77;;;12.10;99.90;;;;;;5066494;28;20043;-27
2022/10/23 08:39:54;;;;;;;18.70;12.30;;;12.20;99.90;;;;;;5072221;28;20040;-28
2022/10/23 08:42:25;;;;;;;14.60;11.35;;;12.30;99.90;;;;;;5070232;28;20055;-29
2022/10/23 08:45:02;;;;;;;17.05;11.80;;;12.50;99.90;;;;;;5072535;28;20500;-29
2022/10/23 08:47:40;;;;;;;14.65;11.38;;;12.70;99.90;;;;;;5063593;28;20213;-29
2022/10/23 08:50:29;;;;;;;15.95;11.18;;;12.80;99.90;;;;;;5065606;28;20509;-28
2022/10/23 08:53:04;;;;;;;11.55;9.43;;;13.00;99.90;;;;;;5094130;28;20040;-29
2022/10/23 08:55:34;;;;;;;13.80;9.27;;;13.20;99.90;;;;;;5074349;28;20055;-28
2022/10/23 08:58:16;;;;;;;11.32;9.43;;;13.40;99.90;;;;;;5070391;28;20068;-30
2022/10/23 09:00:43;;;;;;;12.77;8.65;;;13.60;99.90;;;;;;5066196;28;20041;-28
2022/10/23 09:03:11;;;;;;;11.25;8.45;;;13.80;99.90;;;;;;5064117;28;20551;-28
2022/10/23 09:05:56;;;;;;;15.02;9.13;;;14.00;99.90;;;;;;5069569;28;20036;-28
2022/10/23 09:08:31;;;;;;;15.20;7.45;;;14.10;99.90;;;;;;5066655;28;20116;-28
2022/10/23 09:11:05;;;;;;;12.25;8.30;;;14.30;99.90;;;;;;5071284;28;20048;-28
2022/10/23 09:13:46;;;;;;;12.02;7.63;;;14.40;99.90;;;;;;5070941;28;20497;-29
2022/10/23 09:16:30;;;;;;;11.40;7.85;;;14.50;99.90;;;;;;5066475;28;20059;-28
2022/10/23 09:18:57;;;;;;;12.30;7.18;;;14.70;99.90;;;;;;5069615;28;20047;-28
2022/10/23 09:21:27;;;;;;;10.52;7.45;;;14.80;99.90;;;;;;5074217;28;20033;-29
2022/10/23 09:23:53;;;;;;;7.72;6.93;;;14.80;99.90;;;;;;5084561;28;20029;-29
2022/10/23 09:26:20;;;;;;;10.50;7.07;;;14.80;99.90;;;;;;5075161;28;20051;-28
2022/10/23 09:28:55;;;;;;;8.13;6.65;;;14.80;99.90;;;;;;5064690;28;20454;-29
2022/10/23 09:31:21;;;;;;;10.70;6.88;;;14.80;99.90;;;;;;5072784;28;20044;-29
2022/10/23 09:33:59;;;;;;;9.27;6.30;;;14.80;99.90;;;;;;5073834;28;20040;-28
2022/10/23 09:36:28;;;;;;;17.15;7.00;;;14.80;99.90;;;;;;5070290;28;20037;-31
2022/10/23 09:38:57;;;;;;;10.18;6.30;;;14.80;99.90;;;;;;5074012;28;20078;-29
2022/10/23 09:41:27;;;;;;;9.02;6.70;;;14.80;99.90;;;;;;5075697;28;20143;-28
2022/10/23 09:44:29;;;;;;;9.43;7.10;;;14.90;99.90;;;;;;5080818;28;20077;-29
2022/10/23 09:47:10;;;;;;;8.38;6.60;;;14.90;99.90;;;;;;5084792;28;20486;-29
2022/10/23 09:49:39;;;;;;;9.30;6.75;;;14.90;99.90;;;;;;5066931;28;20032;-29
2022/10/23 09:52:23;;;;;;;8.80;6.88;;;15.00;99.90;;;;;;5064764;28;20068;-28
2022/10/23 09:54:52;;;;;;;9.48;6.75;;;15.10;99.90;;;;;;5071893;28;20133;-29
2022/10/23 09:57:36;;;;;;;9.15;6.55;;;15.10;99.90;;;;;;5089549;28;20097;-27
2022/10/23 10:00:21;;;;;;;8.40;6.35;;;15.30;99.90;;;;;;5066931;28;20116;-30
2022/10/23 10:03:05;;;;;;;8.98;6.70;;;15.30;99.90;;;;;;5062432;28;20041;-28
2022/10/23 10:05:36;;;;;;;7.07;6.00;;;15.40;99.90;;;;;;5082788;28;20033;-28
2022/10/23 10:08:13;;;;;;;9.82;6.18;;;15.50;99.90;;;;;;5069047;28;20032;-28
2022/10/23 10:11:01;;;;;;;7.50;5.88;;;15.50;99.90;;;;;;5068770;28;20088;-28
2022/10/23 10:13:33;;;;;;;9.82;6.15;;;15.50;99.90;;;;;;5078481;28;20040;-28
2022/10/23 10:16:25;;;;;;;9.00;6.50;;;15.60;99.90;;;;;;5062095;28;20059;-28
2022/10/23 10:19:12;;;;;;;7.30;6.45;;;15.60;99.90;;;;;;5077719;28;20029;-28
2022/10/23 10:22:03;;;;;;;9.68;6.10;;;15.60;99.90;;;;;;5073226;28;20032;-28
2022/10/23 10:24:45;;;;;;;7.70;5.90;;;15.70;99.90;;;;;;5065627;28;20043;-27
2022/10/23 10:27:26;;;;;;;7.38;5.43;;;15.70;99.90;;;;;;5076318;28;20040;-29
2022/10/23 10:30:17;;;;;;;10.50;5.72;;;15.80;99.90;;;;;;5060597;28;20072;-27
2022/10/23 10:33:04;;;;;;;10.40;5.80;;;15.90;99.90;;;;;;5063277;28;20048;-28
2022/10/23 10:35:45;;;;;;;6.35;5.53;;;15.90;99.90;;;;;;5079942;28;20074;-28
2022/10/23 10:38:26;;;;;;;8.10;5.57;;;16.00;99.90;;;;;;5073386;28;20043;-27
2022/10/23 10:41:17;;;;;;;10.05;6.05;;;16.00;99.90;;;;;;5067743;28;20085;-28
2022/10/23 10:43:53;;;;;;;6.07;4.85;;;15.90;99.90;;;;;;5068067;28;20123;-28
2022/10/23 10:46:42;;;;;;;10.95;5.75;;;15.90;99.90;;;;;;5079596;28;20040;-28
2022/10/23 10:49:17;;;;;;;9.50;5.28;;;15.80;99.90;;;;;;5085861;28;20033;-29
2022/10/23 10:51:45;;;;;;;13.63;5.93;;;15.80;99.90;;;;;;5065552;28;20116;-29
2022/10/23 10:54:31;;;;;;;8.43;5.35;;;15.80;99.90;;;;;;5064199;28;20040;-28
2022/10/23 10:57:01;;;;;;;6.93;5.45;;;15.80;99.90;;;;;;5080699;28;20060;-29
2022/10/23 10:59:41;;;;;;;8.98;5.25;;;15.80;99.90;;;;;;5086304;28;20514;-27
2022/10/23 11:02:24;;;;;;;9.68;4.95;;;15.90;99.90;;;;;;5060854;28;20032;-28
2022/10/23 11:05:05;;;;;;;8.80;4.65;;;15.80;99.90;;;;;;5082670;28;20062;-29
2022/10/23 11:07:38;;;;;;;5.55;4.40;;;15.80;99.90;;;;;;5066564;28;20393;-28
2022/10/23 11:10:14;;;;;;;9.55;4.45;;;15.80;99.90;;;;;;5085092;28;20037;-28
2022/10/23 11:12:44;;;;;;;8.52;4.05;;;15.80;99.90;;;;;;5066831;28;20090;-28
2022/10/23 11:15:24;;;;;;;6.18;3.85;;;15.70;99.90;;;;;;5068733;28;20083;-29
2022/10/23 11:17:57;;;;;;;5.60;3.92;;;15.70;99.90;;;;;;5070972;28;20053;-28
2022/10/23 11:20:27;;;;;;;12.05;3.95;;;15.60;99.90;;;;;;5070777;28;20068;-29
2022/10/23 11:23:07;;;;;;;9.65;4.57;;;15.70;99.90;;;;;;5065193;28;20048;-28
2022/10/23 11:25:42;;;;;;;6.93;4.00;;;15.70;99.90;;;;;;5071483;28;20029;-28
2022/10/23 11:28:27;;;;;;;6.38;5.03;;;15.70;99.90;;;;;;5070151;28;20190;-28
2022/10/23 11:31:21;;;;;;;8.55;5.00;;;15.60;99.90;;;;;;5071714;28;20947;-29
2022/10/23 11:34:24;;;;;;;7.40;4.97;;;15.60;99.90;;;;;;5068225;28;20386;-28
2022/10/23 11:37:03;;;;;;;6.97;4.43;;;15.70;99.90;;;;;;5069153;28;20135;-30
2022/10/23 11:39:32;;;;;;;6.43;4.80;;;15.70;99.90;;;;;;5070600;28;20094;-30
2022/10/23 11:42:04;;;;;;;6.07;4.70;;;15.70;99.90;;;;;;5081093;28;20114;-29
2022/10/23 11:44:46;;;;;;;6.20;4.40;;;15.80;99.90;;;;;;5068207;28;20076;-28
2022/10/23 11:47:49;;;;;;;7.40;5.05;;;15.80;99.90;;;;;;5067428;28;20406;-29
2022/10/23 11:50:28;;;;;;;6.65;4.40;;;15.80;99.90;;;;;;5060888;28;20059;-28
2022/10/23 11:53:04;;;;;;;10.35;4.65;;;15.90;99.90;;;;;;5063333;28;20871;-28
2022/10/23 11:55:31;;;;;;;8.23;4.63;;;15.90;99.90;;;;;;5066066;28;20032;-29
2022/10/23 11:58:03;;;;;;;8.18;4.40;;;15.90;99.90;;;;;;5076246;28;20532;-28
2022/10/23 12:00:31;;;;;;;6.22;4.55;;;15.90;99.90;;;;;;5067688;28;20036;-29
2022/10/23 12:02:59;;;;;;;7.20;3.80;;;16.00;99.90;;;;;;5066730;28;20127;-28
2022/10/23 12:05:40;;;;;;;6.00;4.10;;;16.00;99.90;;;;;;5065948;28;20039;-29
2022/10/23 12:08:26;;;;;;;5.57;3.50;;;16.00;99.90;;;;;;5078321;28;20043;-28
2022/10/23 12:10:54;;;;;;;4.30;3.83;;;16.10;99.90;;;;;;5065761;28;20032;-28
2022/10/23 12:13:37;;;;;;;6.57;4.43;;;16.10;99.90;;;;;;5065802;28;20502;-32
2022/10/23 12:16:06;;;;;;;7.78;3.80;;;16.10;99.90;;;;;;5064661;28;20165;-33
2022/10/23 12:18:32;;;;;;;6.10;3.63;;;16.10;99.90;;;;;;5073175;28;20090;-34
2022/10/23 12:21:00;;;;;;;6.55;3.25;;;16.20;99.90;;;;;;5065778;28;20119;-34
2022/10/23 12:23:37;;;;;;;7.95;4.05;;;16.20;99.90;;;;;;5063832;28;20036;-31
2022/10/23 12:26:27;;;;;;;7.80;3.95;;;16.30;99.90;;;;;;5064678;28;20032;-31
2022/10/23 12:29:00;;;;;;;9.13;4.25;;;16.30;99.90;;;;;;5058380;28;20112;-31
2022/10/23 12:31:49;;;;;;;6.28;3.65;;;16.30;99.90;;;;;;5063249;28;20037;-36
2022/10/23 12:34:24;;;;;;;7.70;4.28;;;16.40;99.90;;;;;;5067415;28;20037;-35
2022/10/23 12:37:31;;;;;;;7.32;3.88;;;16.40;99.90;;;;;;5058455;28;20041;-32
2022/10/23 12:39:58;;;;;;;5.90;4.18;;;16.40;99.90;;;;;;5067821;28;20610;-31
2022/10/23 12:42:28;;;;;;;6.60;3.75;;;16.30;99.90;;;;;;5072396;28;20036;-31
2022/10/23 12:45:31;;;;;;;6.40;3.53;;;16.40;99.90;;;;;;5069334;28;20093;-32
2022/10/23 12:47:57;;;;;;;4.20;3.33;;;16.30;99.90;;;;;;5068535;28;20044;-34
2022/10/23 12:50:28;;;;;;;7.10;3.40;;;16.30;99.90;;;;;;5069278;28;20052;-33
2022/10/23 12:52:56;;;;;;;7.70;4.32;;;16.20;99.90;;;;;;5064812;28;20115;-32
2022/10/23 12:55:24;;;;;;;8.20;3.60;;;16.20;99.90;;;;;;5068961;28;20267;-35
2022/10/23 12:57:50;;;;;;;6.13;3.58;;;16.10;99.90;;;;;;5073837;28;20043;-31
2022/10/23 13:00:19;;;;;;;10.82;4.10;;;16.10;99.90;;;;;;5060893;28;20371;-33
2022/10/23 13:02:55;;;;;;;6.38;3.70;;;16.10;99.90;;;;;;5067113;28;20049;-32